sensor_id;sensor_type;location;lat;lon;timestamp;temperature;humidity
10282;DHT22;5186;59.472;18.048;2023-07-20T00:02:20;15.20;99.90
10282;DHT22;5186;59.472;18.048;2023-07-20T00:04:46;15.20;99.90
10282;DHT22;5186;59.472;18.048;2023-07-20T00:07:12;15.20;99.90
10282;DHT22;5186;59.472;18.048;2023-07-20T00:09:37;15.20;99.90
10282;DHT22;5186;59.472;18.048;2023-07-20T00:12:03;15.20;99.90
10282;DHT22;5186;59.472;18.048;2023-07-20T00:14:28;15.20;99.90
10282;DHT22;5186;59.472;18.048;2023-07-20T00:16:56;15.10;99.90
10282;DHT22;5186;59.472;18.048;2023-07-20T00:19:26;15.10;99.90
10282;DHT22;5186;59.472;18.048;2023-07-20T00:21:52;15.10;99.90
10282;DHT22;5186;59.472;18.048;2023-07-20T00:24:18;15.10;99.90
10282;DHT22;5186;59.472;18.048;2023-07-20T00:26:44;15.10;99.90
10282;DHT22;5186;59.472;18.048;2023-07-20T00:29:10;15.00;99.90
10282;DHT22;5186;59.472;18.048;2023-07-20T00:31:35;15.00;99.90
10282;DHT22;5186;59.472;18.048;2023-07-20T00:34:03;15.10;99.90
10282;DHT22;5186;59.472;18.048;2023-07-20T00:36:28;15.10;99.90
10282;DHT22;5186;59.472;18.048;2023-07-20T00:38:54;15.00;99.90
10282;DHT22;5186;59.472;18.048;2023-07-20T00:41:20;15.00;99.90
10282;DHT22;5186;59.472;18.048;2023-07-20T00:43:45;15.10;99.90
10282;DHT22;5186;59.472;18.048;2023-07-20T00:46:11;15.00;99.90
10282;DHT22;5186;59.472;18.048;2023-07-20T00:48:37;15.10;99.90
10282;DHT22;5186;59.472;18.048;2023-07-20T00:51:03;15.00;99.90
10282;DHT22;5186;59.472;18.048;2023-07-20T00:53:29;15.00;99.90
10282;DHT22;5186;59.472;18.048;2023-07-20T00:55:55;14.90;99.90
10282;DHT22;5186;59.472;18.048;2023-07-20T00:58:21;14.90;99.90
10282;DHT22;5186;59.472;18.048;2023-07-20T01:00:47;15.00;99.90
10282;DHT22;5186;59.472;18.048;2023-07-20T01:03:12;15.00;99.90
10282;DHT22;5186;59.472;18.048;2023-07-20T01:05:54;15.00;99.90
10282;DHT22;5186;59.472;18.048;2023-07-20T01:11:08;14.90;99.90
10282;DHT22;5186;59.472;18.048;2023-07-20T01:13:36;14.90;99.90
10282;DHT22;5186;59.472;18.048;2023-07-20T01:16:02;14.90;99.90
10282;DHT22;5186;59.472;18.048;2023-07-20T01:18:28;14.90;99.90
10282;DHT22;5186;59.472;18.048;2023-07-20T01:21:09;14.90;99.90
10282;DHT22;5186;59.472;18.048;2023-07-20T01:31:36;15.00;99.90
10282;DHT22;5186;59.472;18.048;2023-07-20T01:34:04;14.90;99.90
10282;DHT22;5186;59.472;18.048;2023-07-20T01:36:35;14.90;99.90
10282;DHT22;5186;59.472;18.048;2023-07-20T01:39:01;14.90;99.90
10282;DHT22;5186;59.472;18.048;2023-07-20T01:41:27;14.90;99.90
10282;DHT22;5186;59.472;18.048;2023-07-20T01:43:53;14.90;99.90
10282;DHT22;5186;59.472;18.048;2023-07-20T01:46:22;14.90;99.90
10282;DHT22;5186;59.472;18.048;2023-07-20T01:48:48;14.90;99.90
10282;DHT22;5186;59.472;18.048;2023-07-20T01:51:13;14.90;99.90
10282;DHT22;5186;59.472;18.048;2023-07-20T01:53:39;14.90;99.90
10282;DHT22;5186;59.472;18.048;2023-07-20T01:56:05;14.90;99.90
10282;DHT22;5186;59.472;18.048;2023-07-20T01:58:30;14.90;99.90
10282;DHT22;5186;59.472;18.048;2023-07-20T02:00:56;14.80;99.90
10282;DHT22;5186;59.472;18.048;2023-07-20T02:03:21;14.90;99.90
10282;DHT22;5186;59.472;18.048;2023-07-20T02:05:49;14.90;99.90
10282;DHT22;5186;59.472;18.048;2023-07-20T02:08:14;14.80;99.90
10282;DHT22;5186;59.472;18.048;2023-07-20T02:10:41;14.80;99.90
10282;DHT22;5186;59.472;18.048;2023-07-20T02:13:07;14.80;99.90
10282;DHT22;5186;59.472;18.048;2023-07-20T02:15:33;14.80;99.90
10282;DHT22;5186;59.472;18.048;2023-07-20T02:17:58;14.80;99.90
10282;DHT22;5186;59.472;18.048;2023-07-20T02:20:24;14.80;99.90
10282;DHT22;5186;59.472;18.048;2023-07-20T02:22:49;14.70;99.90
10282;DHT22;5186;59.472;18.048;2023-07-20T02:25:15;14.70;99.90
10282;DHT22;5186;59.472;18.048;2023-07-20T02:27:41;14.70;99.90
10282;DHT22;5186;59.472;18.048;2023-07-20T02:30:07;14.70;99.90
10282;DHT22;5186;59.472;18.048;2023-07-20T02:32:34;14.70;99.90
10282;DHT22;5186;59.472;18.048;2023-07-20T02:35:00;14.60;99.90
10282;DHT22;5186;59.472;18.048;2023-07-20T02:37:25;14.60;99.90
10282;DHT22;5186;59.472;18.048;2023-07-20T02:39:51;14.60;99.90
10282;DHT22;5186;59.472;18.048;2023-07-20T02:42:16;14.50;99.90
10282;DHT22;5186;59.472;18.048;2023-07-20T02:44:43;14.50;99.90
10282;DHT22;5186;59.472;18.048;2023-07-20T02:47:08;14.50;99.90
10282;DHT22;5186;59.472;18.048;2023-07-20T02:49:34;14.50;99.90
10282;DHT22;5186;59.472;18.048;2023-07-20T02:51:59;14.40;99.90
10282;DHT22;5186;59.472;18.048;2023-07-20T02:54:25;14.40;99.90
10282;DHT22;5186;59.472;18.048;2023-07-20T02:56:51;14.40;99.90
10282;DHT22;5186;59.472;18.048;2023-07-20T02:59:16;14.40;99.90
10282;DHT22;5186;59.472;18.048;2023-07-20T03:01:42;14.30;99.90
10282;DHT22;5186;59.472;18.048;2023-07-20T03:04:08;14.30;99.90
10282;DHT22;5186;59.472;18.048;2023-07-20T03:06:35;14.30;99.90
10282;DHT22;5186;59.472;18.048;2023-07-20T03:09:01;14.30;99.90
10282;DHT22;5186;59.472;18.048;2023-07-20T03:11:27;14.30;99.90
10282;DHT22;5186;59.472;18.048;2023-07-20T03:13:52;14.30;99.90
10282;DHT22;5186;59.472;18.048;2023-07-20T03:16:19;14.30;99.90
10282;DHT22;5186;59.472;18.048;2023-07-20T03:18:45;14.20;99.90
10282;DHT22;5186;59.472;18.048;2023-07-20T03:21:11;14.20;99.90
10282;DHT22;5186;59.472;18.048;2023-07-20T03:23:37;14.20;99.90
10282;DHT22;5186;59.472;18.048;2023-07-20T03:26:03;14.20;99.90
10282;DHT22;5186;59.472;18.048;2023-07-20T03:28:28;14.30;99.90
10282;DHT22;5186;59.472;18.048;2023-07-20T03:30:58;14.30;99.90
10282;DHT22;5186;59.472;18.048;2023-07-20T03:33:28;14.30;99.90
10282;DHT22;5186;59.472;18.048;2023-07-20T03:35:55;14.30;99.90
10282;DHT22;5186;59.472;18.048;2023-07-20T03:38:21;14.30;99.90
10282;DHT22;5186;59.472;18.048;2023-07-20T03:40:51;14.30;99.90
10282;DHT22;5186;59.472;18.048;2023-07-20T03:43:17;14.30;99.90
10282;DHT22;5186;59.472;18.048;2023-07-20T03:45:43;14.30;99.90
10282;DHT22;5186;59.472;18.048;2023-07-20T03:48:08;14.30;99.90
10282;DHT22;5186;59.472;18.048;2023-07-20T03:50:34;14.30;99.90
10282;DHT22;5186;59.472;18.048;2023-07-20T03:53:00;14.40;99.90
10282;DHT22;5186;59.472;18.048;2023-07-20T03:55:25;14.30;99.90
10282;DHT22;5186;59.472;18.048;2023-07-20T03:57:51;14.30;99.90
10282;DHT22;5186;59.472;18.048;2023-07-20T04:00:17;14.40;99.90
10282;DHT22;5186;59.472;18.048;2023-07-20T04:02:43;14.40;99.90
10282;DHT22;5186;59.472;18.048;2023-07-20T04:05:09;14.40;99.90
10282;DHT22;5186;59.472;18.048;2023-07-20T04:07:35;14.50;99.90
10282;DHT22;5186;59.472;18.048;2023-07-20T04:10:00;14.50;99.90
10282;DHT22;5186;59.472;18.048;2023-07-20T04:12:26;14.50;99.90
10282;DHT22;5186;59.472;18.048;2023-07-20T04:14:51;14.60;99.90
10282;DHT22;5186;59.472;18.048;2023-07-20T04:17:18;14.60;99.90
10282;DHT22;5186;59.472;18.048;2023-07-20T04:19:43;14.60;99.90
10282;DHT22;5186;59.472;18.048;2023-07-20T04:22:09;14.60;99.90
10282;DHT22;5186;59.472;18.048;2023-07-20T04:24:35;14.60;99.90
10282;DHT22;5186;59.472;18.048;2023-07-20T04:27:00;14.60;99.90
10282;DHT22;5186;59.472;18.048;2023-07-20T04:29:26;14.60;99.90
10282;DHT22;5186;59.472;18.048;2023-07-20T04:31:51;14.70;99.90
10282;DHT22;5186;59.472;18.048;2023-07-20T04:34:17;14.70;99.90
10282;DHT22;5186;59.472;18.048;2023-07-20T04:36:43;14.70;99.90
10282;DHT22;5186;59.472;18.048;2023-07-20T04:39:09;14.70;99.90
10282;DHT22;5186;59.472;18.048;2023-07-20T04:41:35;14.70;99.90
10282;DHT22;5186;59.472;18.048;2023-07-20T04:44:01;14.80;99.90
10282;DHT22;5186;59.472;18.048;2023-07-20T04:46:26;14.80;99.90
10282;DHT22;5186;59.472;18.048;2023-07-20T04:48:52;14.80;99.90
10282;DHT22;5186;59.472;18.048;2023-07-20T04:51:18;14.80;99.90
10282;DHT22;5186;59.472;18.048;2023-07-20T04:53:46;14.90;99.90
10282;DHT22;5186;59.472;18.048;2023-07-20T04:56:12;14.90;99.90
10282;DHT22;5186;59.472;18.048;2023-07-20T04:58:38;14.90;99.90
10282;DHT22;5186;59.472;18.048;2023-07-20T05:01:04;15.00;99.90
10282;DHT22;5186;59.472;18.048;2023-07-20T05:03:29;15.00;99.90
10282;DHT22;5186;59.472;18.048;2023-07-20T05:05:55;15.00;99.90
10282;DHT22;5186;59.472;18.048;2023-07-20T05:08:20;15.10;99.90
10282;DHT22;5186;59.472;18.048;2023-07-20T05:10:47;15.10;99.90
10282;DHT22;5186;59.472;18.048;2023-07-20T05:13:13;15.20;99.90
10282;DHT22;5186;59.472;18.048;2023-07-20T05:15:39;15.20;99.90
10282;DHT22;5186;59.472;18.048;2023-07-20T05:18:05;15.20;99.90
10282;DHT22;5186;59.472;18.048;2023-07-20T05:20:31;15.30;99.90
10282;DHT22;5186;59.472;18.048;2023-07-20T05:22:58;15.30;99.90
10282;DHT22;5186;59.472;18.048;2023-07-20T05:25:24;15.30;99.90
10282;DHT22;5186;59.472;18.048;2023-07-20T05:27:50;15.40;99.90
10282;DHT22;5186;59.472;18.048;2023-07-20T05:30:16;15.40;99.90
10282;DHT22;5186;59.472;18.048;2023-07-20T05:32:41;15.40;99.90
10282;DHT22;5186;59.472;18.048;2023-07-20T05:35:07;15.50;99.90
10282;DHT22;5186;59.472;18.048;2023-07-20T05:37:34;15.50;99.90
10282;DHT22;5186;59.472;18.048;2023-07-20T05:39:59;15.50;99.90
10282;DHT22;5186;59.472;18.048;2023-07-20T05:42:25;15.60;99.90
10282;DHT22;5186;59.472;18.048;2023-07-20T05:48:17;15.70;99.90
10282;DHT22;5186;59.472;18.048;2023-07-20T05:50:43;15.80;99.90
10282;DHT22;5186;59.472;18.048;2023-07-20T05:53:09;15.80;99.90
10282;DHT22;5186;59.472;18.048;2023-07-20T05:55:34;15.80;99.90
10282;DHT22;5186;59.472;18.048;2023-07-20T05:58:00;15.90;99.90
10282;DHT22;5186;59.472;18.048;2023-07-20T06:00:26;16.00;99.90
10282;DHT22;5186;59.472;18.048;2023-07-20T06:02:54;15.90;99.90
10282;DHT22;5186;59.472;18.048;2023-07-20T06:05:21;16.00;99.90
10282;DHT22;5186;59.472;18.048;2023-07-20T06:07:47;16.10;99.90
10282;DHT22;5186;59.472;18.048;2023-07-20T06:10:12;16.10;99.90
10282;DHT22;5186;59.472;18.048;2023-07-20T06:12:38;16.00;99.90
10282;DHT22;5186;59.472;18.048;2023-07-20T06:15:05;16.10;99.90
10282;DHT22;5186;59.472;18.048;2023-07-20T06:17:31;16.10;99.90
10282;DHT22;5186;59.472;18.048;2023-07-20T06:19:56;16.20;99.90
10282;DHT22;5186;59.472;18.048;2023-07-20T06:22:22;16.20;99.90
10282;DHT22;5186;59.472;18.048;2023-07-20T06:24:48;16.20;99.90
10282;DHT22;5186;59.472;18.048;2023-07-20T06:27:13;16.30;99.90
10282;DHT22;5186;59.472;18.048;2023-07-20T06:29:39;16.40;99.90
10282;DHT22;5186;59.472;18.048;2023-07-20T06:32:05;16.40;99.90
10282;DHT22;5186;59.472;18.048;2023-07-20T06:34:31;16.40;99.90
10282;DHT22;5186;59.472;18.048;2023-07-20T06:37:02;16.40;99.90
10282;DHT22;5186;59.472;18.048;2023-07-20T06:39:29;16.50;99.90
10282;DHT22;5186;59.472;18.048;2023-07-20T06:41:55;16.60;99.90
10282;DHT22;5186;59.472;18.048;2023-07-20T06:44:20;16.70;99.90
10282;DHT22;5186;59.472;18.048;2023-07-20T06:46:46;16.70;99.90
10282;DHT22;5186;59.472;18.048;2023-07-20T06:49:26;16.80;99.90
10282;DHT22;5186;59.472;18.048;2023-07-20T06:51:52;16.90;99.90
10282;DHT22;5186;59.472;18.048;2023-07-20T06:54:18;17.00;99.90
10282;DHT22;5186;59.472;18.048;2023-07-20T06:56:43;17.00;99.90
10282;DHT22;5186;59.472;18.048;2023-07-20T06:59:09;17.00;99.90
10282;DHT22;5186;59.472;18.048;2023-07-20T07:01:34;17.00;99.90
10282;DHT22;5186;59.472;18.048;2023-07-20T07:04:00;17.00;99.90
10282;DHT22;5186;59.472;18.048;2023-07-20T07:06:26;17.00;99.90
10282;DHT22;5186;59.472;18.048;2023-07-20T07:08:53;17.00;99.90
10282;DHT22;5186;59.472;18.048;2023-07-20T07:11:18;17.10;99.90
10282;DHT22;5186;59.472;18.048;2023-07-20T07:13:44;17.20;99.90
10282;DHT22;5186;59.472;18.048;2023-07-20T07:16:12;17.30;99.90
10282;DHT22;5186;59.472;18.048;2023-07-20T07:18:40;17.40;99.90
10282;DHT22;5186;59.472;18.048;2023-07-20T07:21:05;17.50;99.90
10282;DHT22;5186;59.472;18.048;2023-07-20T07:23:31;17.60;99.90
10282;DHT22;5186;59.472;18.048;2023-07-20T07:25:56;17.80;99.90
10282;DHT22;5186;59.472;18.048;2023-07-20T07:28:22;17.70;99.90
10282;DHT22;5186;59.472;18.048;2023-07-20T07:30:48;17.80;99.90
10282;DHT22;5186;59.472;18.048;2023-07-20T07:33:13;17.80;99.90
10282;DHT22;5186;59.472;18.048;2023-07-20T07:35:39;17.90;99.90
10282;DHT22;5186;59.472;18.048;2023-07-20T07:38:04;17.90;99.90
10282;DHT22;5186;59.472;18.048;2023-07-20T07:40:32;18.00;99.90
10282;DHT22;5186;59.472;18.048;2023-07-20T07:42:57;17.80;99.90
10282;DHT22;5186;59.472;18.048;2023-07-20T07:45:23;17.80;99.90
10282;DHT22;5186;59.472;18.048;2023-07-20T07:47:48;17.80;99.90
10282;DHT22;5186;59.472;18.048;2023-07-20T07:50:14;17.90;99.90
10282;DHT22;5186;59.472;18.048;2023-07-20T07:52:40;17.90;99.90
10282;DHT22;5186;59.472;18.048;2023-07-20T07:55:05;17.90;99.90
10282;DHT22;5186;59.472;18.048;2023-07-20T07:57:31;17.90;99.90
10282;DHT22;5186;59.472;18.048;2023-07-20T07:59:57;17.90;99.90
10282;DHT22;5186;59.472;18.048;2023-07-20T08:02:22;17.90;99.90
10282;DHT22;5186;59.472;18.048;2023-07-20T08:04:48;18.10;99.90
10282;DHT22;5186;59.472;18.048;2023-07-20T08:07:13;18.10;99.90
10282;DHT22;5186;59.472;18.048;2023-07-20T08:09:39;18.10;99.90
10282;DHT22;5186;59.472;18.048;2023-07-20T08:12:05;18.10;99.90
10282;DHT22;5186;59.472;18.048;2023-07-20T08:14:31;18.20;99.90
10282;DHT22;5186;59.472;18.048;2023-07-20T08:16:56;18.20;99.90
10282;DHT22;5186;59.472;18.048;2023-07-20T08:19:22;18.30;99.90
10282;DHT22;5186;59.472;18.048;2023-07-20T08:21:49;18.30;99.90
10282;DHT22;5186;59.472;18.048;2023-07-20T08:24:14;18.20;99.90
10282;DHT22;5186;59.472;18.048;2023-07-20T08:26:40;18.20;99.90
10282;DHT22;5186;59.472;18.048;2023-07-20T08:29:05;18.00;99.90
10282;DHT22;5186;59.472;18.048;2023-07-20T08:31:31;18.00;99.90
10282;DHT22;5186;59.472;18.048;2023-07-20T08:33:56;18.10;99.90
10282;DHT22;5186;59.472;18.048;2023-07-20T08:36:22;18.20;99.90
10282;DHT22;5186;59.472;18.048;2023-07-20T08:38:48;18.30;99.90
10282;DHT22;5186;59.472;18.048;2023-07-20T08:41:14;18.30;99.90
10282;DHT22;5186;59.472;18.048;2023-07-20T08:43:42;18.30;99.90
10282;DHT22;5186;59.472;18.048;2023-07-20T08:46:11;18.30;99.90
10282;DHT22;5186;59.472;18.048;2023-07-20T08:48:38;18.20;99.90
10282;DHT22;5186;59.472;18.048;2023-07-20T08:51:05;18.10;99.90
10282;DHT22;5186;59.472;18.048;2023-07-20T08:53:31;18.10;99.90
10282;DHT22;5186;59.472;18.048;2023-07-20T08:55:58;18.10;99.90
10282;DHT22;5186;59.472;18.048;2023-07-20T08:58:25;18.10;99.90
10282;DHT22;5186;59.472;18.048;2023-07-20T09:00:52;18.20;99.90
10282;DHT22;5186;59.472;18.048;2023-07-20T09:03:18;18.10;99.90
10282;DHT22;5186;59.472;18.048;2023-07-20T09:05:44;18.10;99.90
10282;DHT22;5186;59.472;18.048;2023-07-20T09:08:10;18.10;99.90
10282;DHT22;5186;59.472;18.048;2023-07-20T09:10:36;18.20;99.90
10282;DHT22;5186;59.472;18.048;2023-07-20T09:13:01;18.20;99.90
10282;DHT22;5186;59.472;18.048;2023-07-20T09:15:29;18.20;99.90
10282;DHT22;5186;59.472;18.048;2023-07-20T09:17:55;18.10;99.90
10282;DHT22;5186;59.472;18.048;2023-07-20T09:20:21;18.20;99.90
10282;DHT22;5186;59.472;18.048;2023-07-20T09:22:47;18.30;99.90
10282;DHT22;5186;59.472;18.048;2023-07-20T09:25:13;18.50;99.90
10282;DHT22;5186;59.472;18.048;2023-07-20T09:27:41;18.60;99.90
10282;DHT22;5186;59.472;18.048;2023-07-20T09:30:08;18.70;99.90
10282;DHT22;5186;59.472;18.048;2023-07-20T09:32:42;18.70;99.90
10282;DHT22;5186;59.472;18.048;2023-07-20T09:35:13;18.70;99.90
10282;DHT22;5186;59.472;18.048;2023-07-20T09:37:39;18.60;99.90
10282;DHT22;5186;59.472;18.048;2023-07-20T09:40:06;18.60;99.90
10282;DHT22;5186;59.472;18.048;2023-07-20T09:42:35;18.60;99.90
10282;DHT22;5186;59.472;18.048;2023-07-20T09:45:00;18.60;99.90
10282;DHT22;5186;59.472;18.048;2023-07-20T09:47:26;18.70;99.90
10282;DHT22;5186;59.472;18.048;2023-07-20T09:50:02;18.80;99.90
10282;DHT22;5186;59.472;18.048;2023-07-20T09:52:29;18.90;99.90
10282;DHT22;5186;59.472;18.048;2023-07-20T09:54:55;19.10;99.90
10282;DHT22;5186;59.472;18.048;2023-07-20T09:57:21;19.20;99.90
10282;DHT22;5186;59.472;18.048;2023-07-20T09:59:47;19.20;99.90
10282;DHT22;5186;59.472;18.048;2023-07-20T10:02:25;19.20;99.90
10282;DHT22;5186;59.472;18.048;2023-07-20T10:04:53;19.30;99.90
10282;DHT22;5186;59.472;18.048;2023-07-20T10:07:19;19.30;99.90
10282;DHT22;5186;59.472;18.048;2023-07-20T10:09:49;19.30;99.90
10282;DHT22;5186;59.472;18.048;2023-07-20T10:12:16;19.30;99.90
10282;DHT22;5186;59.472;18.048;2023-07-20T10:14:52;19.30;99.90
10282;DHT22;5186;59.472;18.048;2023-07-20T10:17:20;19.30;99.90
10282;DHT22;5186;59.472;18.048;2023-07-20T10:19:51;19.30;99.90
10282;DHT22;5186;59.472;18.048;2023-07-20T10:22:26;19.30;99.90
10282;DHT22;5186;59.472;18.048;2023-07-20T10:24:54;19.20;99.90
10282;DHT22;5186;59.472;18.048;2023-07-20T10:27:23;19.20;99.90
10282;DHT22;5186;59.472;18.048;2023-07-20T10:29:49;19.20;99.90
10282;DHT22;5186;59.472;18.048;2023-07-20T10:32:16;19.30;99.90
10282;DHT22;5186;59.472;18.048;2023-07-20T10:34:42;19.30;99.90
10282;DHT22;5186;59.472;18.048;2023-07-20T10:37:07;19.30;99.90
10282;DHT22;5186;59.472;18.048;2023-07-20T10:39:34;19.30;99.90
10282;DHT22;5186;59.472;18.048;2023-07-20T10:44:27;19.40;99.90
10282;DHT22;5186;59.472;18.048;2023-07-20T10:46:59;19.60;99.90
10282;DHT22;5186;59.472;18.048;2023-07-20T10:49:26;19.60;99.90
10282;DHT22;5186;59.472;18.048;2023-07-20T10:52:00;19.70;99.90
10282;DHT22;5186;59.472;18.048;2023-07-20T10:56:51;19.90;99.90
10282;DHT22;5186;59.472;18.048;2023-07-20T10:59:20;19.90;99.90
10282;DHT22;5186;59.472;18.048;2023-07-20T11:02:06;20.00;99.90
10282;DHT22;5186;59.472;18.048;2023-07-20T11:04:42;20.00;99.90
10282;DHT22;5186;59.472;18.048;2023-07-20T11:07:09;20.10;99.90
10282;DHT22;5186;59.472;18.048;2023-07-20T11:09:36;20.10;99.90
10282;DHT22;5186;59.472;18.048;2023-07-20T11:12:15;20.20;99.90
10282;DHT22;5186;59.472;18.048;2023-07-20T11:14:42;20.30;99.90
10282;DHT22;5186;59.472;18.048;2023-07-20T11:17:13;20.30;99.90
10282;DHT22;5186;59.472;18.048;2023-07-20T11:19:39;20.30;99.90
10282;DHT22;5186;59.472;18.048;2023-07-20T11:22:06;20.40;99.90
10282;DHT22;5186;59.472;18.048;2023-07-20T11:24:38;20.30;99.90
10282;DHT22;5186;59.472;18.048;2023-07-20T11:27:04;20.30;99.90
10282;DHT22;5186;59.472;18.048;2023-07-20T11:29:30;20.20;99.90
10282;DHT22;5186;59.472;18.048;2023-07-20T11:31:56;20.30;99.90
10282;DHT22;5186;59.472;18.048;2023-07-20T11:34:22;20.40;99.90
10282;DHT22;5186;59.472;18.048;2023-07-20T11:36:49;20.50;99.90
10282;DHT22;5186;59.472;18.048;2023-07-20T11:39:16;20.50;99.90
10282;DHT22;5186;59.472;18.048;2023-07-20T11:41:49;20.40;99.90
10282;DHT22;5186;59.472;18.048;2023-07-20T11:44:22;20.20;99.90
10282;DHT22;5186;59.472;18.048;2023-07-20T11:47:03;20.20;99.90
10282;DHT22;5186;59.472;18.048;2023-07-20T11:49:36;20.10;99.90
10282;DHT22;5186;59.472;18.048;2023-07-20T11:52:04;20.00;99.90
10282;DHT22;5186;59.472;18.048;2023-07-20T11:54:30;20.00;99.90
10282;DHT22;5186;59.472;18.048;2023-07-20T11:57:00;19.90;99.90
10282;DHT22;5186;59.472;18.048;2023-07-20T11:59:25;19.90;99.90
10282;DHT22;5186;59.472;18.048;2023-07-20T12:01:52;19.90;99.90
10282;DHT22;5186;59.472;18.048;2023-07-20T12:04:18;19.90;99.90
10282;DHT22;5186;59.472;18.048;2023-07-20T12:06:45;19.90;99.90
10282;DHT22;5186;59.472;18.048;2023-07-20T12:09:14;20.10;99.90
10282;DHT22;5186;59.472;18.048;2023-07-20T12:11:43;20.10;99.90
10282;DHT22;5186;59.472;18.048;2023-07-20T12:14:09;20.10;99.90
10282;DHT22;5186;59.472;18.048;2023-07-20T12:16:36;20.20;99.90
10282;DHT22;5186;59.472;18.048;2023-07-20T12:19:11;20.30;99.90
10282;DHT22;5186;59.472;18.048;2023-07-20T12:21:39;20.30;99.90
10282;DHT22;5186;59.472;18.048;2023-07-20T12:24:06;20.40;99.90
10282;DHT22;5186;59.472;18.048;2023-07-20T12:26:33;20.40;99.90
10282;DHT22;5186;59.472;18.048;2023-07-20T12:28:59;20.50;99.90
10282;DHT22;5186;59.472;18.048;2023-07-20T12:31:27;20.40;99.90
10282;DHT22;5186;59.472;18.048;2023-07-20T12:33:53;20.40;99.90
10282;DHT22;5186;59.472;18.048;2023-07-20T12:36:19;20.40;99.90
10282;DHT22;5186;59.472;18.048;2023-07-20T12:38:45;20.50;99.90
10282;DHT22;5186;59.472;18.048;2023-07-20T12:41:12;20.50;99.90
10282;DHT22;5186;59.472;18.048;2023-07-20T12:43:39;20.60;99.90
10282;DHT22;5186;59.472;18.048;2023-07-20T12:46:05;20.60;99.90
10282;DHT22;5186;59.472;18.048;2023-07-20T12:48:31;20.60;99.90
10282;DHT22;5186;59.472;18.048;2023-07-20T12:50:57;20.70;99.90
10282;DHT22;5186;59.472;18.048;2023-07-20T12:53:22;20.80;99.90
10282;DHT22;5186;59.472;18.048;2023-07-20T12:55:48;20.80;99.90
10282;DHT22;5186;59.472;18.048;2023-07-20T12:58:13;20.90;99.90
10282;DHT22;5186;59.472;18.048;2023-07-20T13:00:39;20.90;99.90
10282;DHT22;5186;59.472;18.048;2023-07-20T13:03:06;21.00;99.90
10282;DHT22;5186;59.472;18.048;2023-07-20T13:05:34;21.00;99.90
10282;DHT22;5186;59.472;18.048;2023-07-20T13:08:00;21.10;99.90
10282;DHT22;5186;59.472;18.048;2023-07-20T13:10:26;21.10;99.90
10282;DHT22;5186;59.472;18.048;2023-07-20T13:12:52;21.00;99.90
10282;DHT22;5186;59.472;18.048;2023-07-20T13:15:17;21.10;99.90
10282;DHT22;5186;59.472;18.048;2023-07-20T13:17:44;21.10;99.90
10282;DHT22;5186;59.472;18.048;2023-07-20T13:20:10;21.20;99.90
10282;DHT22;5186;59.472;18.048;2023-07-20T13:22:40;21.20;99.90
10282;DHT22;5186;59.472;18.048;2023-07-20T13:25:07;21.30;99.90
10282;DHT22;5186;59.472;18.048;2023-07-20T13:27:33;21.30;99.90
10282;DHT22;5186;59.472;18.048;2023-07-20T13:29:59;21.30;99.90
10282;DHT22;5186;59.472;18.048;2023-07-20T13:32:26;21.30;99.90
10282;DHT22;5186;59.472;18.048;2023-07-20T13:34:52;21.20;99.90
10282;DHT22;5186;59.472;18.048;2023-07-20T13:37:18;21.10;99.90
10282;DHT22;5186;59.472;18.048;2023-07-20T13:39:44;21.20;99.90
10282;DHT22;5186;59.472;18.048;2023-07-20T13:42:10;21.10;99.90
10282;DHT22;5186;59.472;18.048;2023-07-20T13:44:37;21.20;99.90
10282;DHT22;5186;59.472;18.048;2023-07-20T13:47:03;21.30;99.90
10282;DHT22;5186;59.472;18.048;2023-07-20T13:49:30;21.30;99.90
10282;DHT22;5186;59.472;18.048;2023-07-20T13:51:56;21.40;99.90
10282;DHT22;5186;59.472;18.048;2023-07-20T13:54:23;21.40;99.90
10282;DHT22;5186;59.472;18.048;2023-07-20T13:56:48;21.50;99.90
10282;DHT22;5186;59.472;18.048;2023-07-20T13:59:14;21.40;99.90
10282;DHT22;5186;59.472;18.048;2023-07-20T14:01:39;21.50;99.90
10282;DHT22;5186;59.472;18.048;2023-07-20T14:04:05;21.50;99.90
10282;DHT22;5186;59.472;18.048;2023-07-20T14:06:32;21.50;99.90
10282;DHT22;5186;59.472;18.048;2023-07-20T14:08:58;21.40;99.90
10282;DHT22;5186;59.472;18.048;2023-07-20T14:11:24;21.50;99.90
10282;DHT22;5186;59.472;18.048;2023-07-20T14:13:51;21.50;99.90
10282;DHT22;5186;59.472;18.048;2023-07-20T14:16:18;21.60;99.90
10282;DHT22;5186;59.472;18.048;2023-07-20T14:18:43;21.60;99.90
10282;DHT22;5186;59.472;18.048;2023-07-20T14:21:12;21.70;99.90
10282;DHT22;5186;59.472;18.048;2023-07-20T14:23:38;21.60;99.90
10282;DHT22;5186;59.472;18.048;2023-07-20T14:26:04;21.60;99.90
10282;DHT22;5186;59.472;18.048;2023-07-20T14:28:34;21.60;99.90
10282;DHT22;5186;59.472;18.048;2023-07-20T14:31:00;21.70;99.90
10282;DHT22;5186;59.472;18.048;2023-07-20T14:33:25;21.70;99.90
10282;DHT22;5186;59.472;18.048;2023-07-20T14:35:51;21.70;99.90
10282;DHT22;5186;59.472;18.048;2023-07-20T14:38:16;21.80;99.90
10282;DHT22;5186;59.472;18.048;2023-07-20T14:40:42;21.70;99.90
10282;DHT22;5186;59.472;18.048;2023-07-20T14:43:07;21.70;99.90
10282;DHT22;5186;59.472;18.048;2023-07-20T14:45:33;21.60;99.90
10282;DHT22;5186;59.472;18.048;2023-07-20T14:47:59;21.50;99.90
10282;DHT22;5186;59.472;18.048;2023-07-20T14:50:25;21.50;99.90
10282;DHT22;5186;59.472;18.048;2023-07-20T14:52:50;21.60;99.90
10282;DHT22;5186;59.472;18.048;2023-07-20T14:55:16;21.60;99.90
10282;DHT22;5186;59.472;18.048;2023-07-20T14:57:42;21.50;99.90
10282;DHT22;5186;59.472;18.048;2023-07-20T15:00:08;21.60;99.90
10282;DHT22;5186;59.472;18.048;2023-07-20T15:02:36;21.50;99.90
10282;DHT22;5186;59.472;18.048;2023-07-20T15:05:06;21.50;99.90
10282;DHT22;5186;59.472;18.048;2023-07-20T15:07:32;21.50;99.90
10282;DHT22;5186;59.472;18.048;2023-07-20T15:09:57;21.50;99.90
10282;DHT22;5186;59.472;18.048;2023-07-20T15:12:23;21.50;99.90
10282;DHT22;5186;59.472;18.048;2023-07-20T15:15:09;21.40;99.90
10282;DHT22;5186;59.472;18.048;2023-07-20T15:17:35;21.40;99.90
10282;DHT22;5186;59.472;18.048;2023-07-20T15:20:02;21.40;99.90
10282;DHT22;5186;59.472;18.048;2023-07-20T15:22:31;21.30;99.90
10282;DHT22;5186;59.472;18.048;2023-07-20T15:24:57;21.30;99.90
10282;DHT22;5186;59.472;18.048;2023-07-20T15:27:23;21.30;99.90
10282;DHT22;5186;59.472;18.048;2023-07-20T15:29:49;21.40;99.90
10282;DHT22;5186;59.472;18.048;2023-07-20T15:32:15;21.50;99.90
10282;DHT22;5186;59.472;18.048;2023-07-20T15:34:42;21.60;99.90
10282;DHT22;5186;59.472;18.048;2023-07-20T15:37:08;21.60;99.90
10282;DHT22;5186;59.472;18.048;2023-07-20T15:39:35;21.70;99.90
10282;DHT22;5186;59.472;18.048;2023-07-20T15:42:01;21.60;99.90
10282;DHT22;5186;59.472;18.048;2023-07-20T15:44:26;21.50;99.90
10282;DHT22;5186;59.472;18.048;2023-07-20T15:46:52;21.50;99.90